sensor_id;sensor_type;location;lat;lon;timestamp;P1;durP1;ratioP1;P2;durP2;ratioP2
19024;SDS011;9645;51.448;6.260;2023-11-21T00:00:34;38.28;;;14.07;;
19024;SDS011;9645;51.448;6.260;2023-11-21T00:03:02;30.15;;;12.20;;
19024;SDS011;9645;51.448;6.260;2023-11-21T00:05:30;38.75;;;14.88;;
19024;SDS011;9645;51.448;6.260;2023-11-21T00:07:57;37.95;;;14.27;;
19024;SDS011;9645;51.448;6.260;2023-11-21T00:10:24;34.42;;;13.82;;
19024;SDS011;9645;51.448;6.260;2023-11-21T00:12:53;38.80;;;14.25;;
19024;SDS011;9645;51.448;6.260;2023-11-21T00:15:22;36.72;;;13.85;;
19024;SDS011;9645;51.448;6.260;2023-11-21T00:17:49;33.45;;;13.32;;
19024;SDS011;9645;51.448;6.260;2023-11-21T00:20:19;39.05;;;13.60;;
19024;SDS011;9645;51.448;6.260;2023-11-21T00:22:47;35.40;;;13.35;;
19024;SDS011;9645;51.448;6.260;2023-11-21T00:25:14;42.17;;;13.95;;
19024;SDS011;9645;51.448;6.260;2023-11-21T00:27:43;45.17;;;13.68;;
19024;SDS011;9645;51.448;6.260;2023-11-21T00:30:11;28.77;;;11.40;;
19024;SDS011;9645;51.448;6.260;2023-11-21T00:32:38;45.20;;;14.40;;
19024;SDS011;9645;51.448;6.260;2023-11-21T00:35:05;35.00;;;13.40;;
19024;SDS011;9645;51.448;6.260;2023-11-21T00:37:34;29.60;;;12.80;;
19024;SDS011;9645;51.448;6.260;2023-11-21T00:40:05;31.75;;;13.00;;
19024;SDS011;9645;51.448;6.260;2023-11-21T00:42:32;35.25;;;12.75;;
19024;SDS011;9645;51.448;6.260;2023-11-21T00:45:00;27.52;;;12.38;;
19024;SDS011;9645;51.448;6.260;2023-11-21T00:47:28;38.38;;;15.15;;
19024;SDS011;9645;51.448;6.260;2023-11-21T00:49:55;35.10;;;12.63;;
19024;SDS011;9645;51.448;6.260;2023-11-21T00:52:24;46.67;;;13.48;;
19024;SDS011;9645;51.448;6.260;2023-11-21T00:54:56;31.30;;;13.57;;
19024;SDS011;9645;51.448;6.260;2023-11-21T00:57:25;47.53;;;14.55;;
19024;SDS011;9645;51.448;6.260;2023-11-21T00:59:52;41.47;;;13.18;;
19024;SDS011;9645;51.448;6.260;2023-11-21T01:02:19;39.55;;;15.40;;
19024;SDS011;9645;51.448;6.260;2023-11-21T01:04:47;30.02;;;12.82;;
19024;SDS011;9645;51.448;6.260;2023-11-21T01:07:14;39.58;;;14.65;;
19024;SDS011;9645;51.448;6.260;2023-11-21T01:09:41;36.55;;;13.90;;
19024;SDS011;9645;51.448;6.260;2023-11-21T01:12:10;39.40;;;14.40;;
19024;SDS011;9645;51.448;6.260;2023-11-21T01:14:38;37.67;;;13.40;;
19024;SDS011;9645;51.448;6.260;2023-11-21T01:17:05;31.60;;;12.55;;
19024;SDS011;9645;51.448;6.260;2023-11-21T01:19:33;36.45;;;13.35;;
19024;SDS011;9645;51.448;6.260;2023-11-21T01:22:00;43.60;;;14.30;;
19024;SDS011;9645;51.448;6.260;2023-11-21T01:24:29;34.85;;;12.68;;
19024;SDS011;9645;51.448;6.260;2023-11-21T01:26:56;36.58;;;13.30;;
19024;SDS011;9645;51.448;6.260;2023-11-21T01:29:24;36.88;;;13.85;;
19024;SDS011;9645;51.448;6.260;2023-11-21T01:31:53;47.75;;;14.35;;
19024;SDS011;9645;51.448;6.260;2023-11-21T01:34:20;34.65;;;13.85;;
19024;SDS011;9645;51.448;6.260;2023-11-21T01:36:47;41.55;;;13.10;;
19024;SDS011;9645;51.448;6.260;2023-11-21T01:39:15;36.42;;;13.48;;
19024;SDS011;9645;51.448;6.260;2023-11-21T01:41:48;47.13;;;15.40;;
19024;SDS011;9645;51.448;6.260;2023-11-21T01:44:17;35.38;;;14.65;;
19024;SDS011;9645;51.448;6.260;2023-11-21T01:46:46;40.13;;;13.43;;
19024;SDS011;9645;51.448;6.260;2023-11-21T01:49:14;32.58;;;12.63;;
19024;SDS011;9645;51.448;6.260;2023-11-21T01:51:43;45.63;;;14.23;;
19024;SDS011;9645;51.448;6.260;2023-11-21T01:54:14;33.35;;;11.90;;
19024;SDS011;9645;51.448;6.260;2023-11-21T01:56:42;41.80;;;12.95;;
19024;SDS011;9645;51.448;6.260;2023-11-21T01:59:10;31.67;;;11.80;;
19024;SDS011;9645;51.448;6.260;2023-11-21T02:01:37;40.03;;;13.30;;
19024;SDS011;9645;51.448;6.260;2023-11-21T02:04:06;45.45;;;13.52;;
19024;SDS011;9645;51.448;6.260;2023-11-21T02:06:33;40.42;;;15.02;;
19024;SDS011;9645;51.448;6.260;2023-11-21T02:09:00;34.63;;;13.85;;
19024;SDS011;9645;51.448;6.260;2023-11-21T02:11:29;37.72;;;13.30;;
19024;SDS011;9645;51.448;6.260;2023-11-21T02:14:00;34.45;;;12.85;;
19024;SDS011;9645;51.448;6.260;2023-11-21T02:16:27;34.13;;;13.30;;
19024;SDS011;9645;51.448;6.260;2023-11-21T02:18:56;24.95;;;11.25;;
19024;SDS011;9645;51.448;6.260;2023-11-21T02:21:25;48.38;;;13.45;;
19024;SDS011;9645;51.448;6.260;2023-11-21T02:23:55;37.50;;;13.45;;
19024;SDS011;9645;51.448;6.260;2023-11-21T02:26:23;43.40;;;12.68;;
19024;SDS011;9645;51.448;6.260;2023-11-21T02:28:51;34.38;;;13.55;;
19024;SDS011;9645;51.448;6.260;2023-11-21T02:31:18;34.00;;;13.55;;
19024;SDS011;9645;51.448;6.260;2023-11-21T02:33:44;43.00;;;14.05;;
19024;SDS011;9645;51.448;6.260;2023-11-21T02:36:12;38.65;;;13.27;;
19024;SDS011;9645;51.448;6.260;2023-11-21T02:38:39;38.15;;;14.20;;
19024;SDS011;9645;51.448;6.260;2023-11-21T02:41:08;34.42;;;13.60;;
19024;SDS011;9645;51.448;6.260;2023-11-21T02:43:35;47.78;;;15.15;;
19024;SDS011;9645;51.448;6.260;2023-11-21T02:46:03;39.92;;;13.80;;
19024;SDS011;9645;51.448;6.260;2023-11-21T02:48:31;38.60;;;13.88;;
19024;SDS011;9645;51.448;6.260;2023-11-21T02:50:57;52.35;;;15.00;;
19024;SDS011;9645;51.448;6.260;2023-11-21T02:53:24;65.40;;;16.83;;
19024;SDS011;9645;51.448;6.260;2023-11-21T02:55:51;37.97;;;15.10;;
19024;SDS011;9645;51.448;6.260;2023-11-21T02:58:20;49.05;;;15.02;;
19024;SDS011;9645;51.448;6.260;2023-11-21T03:00:47;48.58;;;16.40;;
19024;SDS011;9645;51.448;6.260;2023-11-21T03:03:15;45.45;;;14.70;;
19024;SDS011;9645;51.448;6.260;2023-11-21T03:05:42;54.40;;;15.88;;
19024;SDS011;9645;51.448;6.260;2023-11-21T03:08:09;43.63;;;15.48;;
19024;SDS011;9645;51.448;6.260;2023-11-21T03:10:36;45.17;;;16.23;;
19024;SDS011;9645;51.448;6.260;2023-11-21T03:13:04;49.05;;;14.70;;
19024;SDS011;9645;51.448;6.260;2023-11-21T03:15:32;49.38;;;15.60;;
19024;SDS011;9645;51.448;6.260;2023-11-21T03:18:00;48.35;;;16.38;;
19024;SDS011;9645;51.448;6.260;2023-11-21T03:20:28;43.50;;;14.73;;
19024;SDS011;9645;51.448;6.260;2023-11-21T03:22:55;45.88;;;15.27;;
19024;SDS011;9645;51.448;6.260;2023-11-21T03:25:24;45.72;;;15.32;;
19024;SDS011;9645;51.448;6.260;2023-11-21T03:27:52;46.03;;;15.18;;
19024;SDS011;9645;51.448;6.260;2023-11-21T03:30:19;46.30;;;15.35;;
19024;SDS011;9645;51.448;6.260;2023-11-21T03:32:48;50.80;;;16.55;;
19024;SDS011;9645;51.448;6.260;2023-11-21T03:35:15;42.85;;;15.02;;
19024;SDS011;9645;51.448;6.260;2023-11-21T03:37:43;52.65;;;16.20;;
19024;SDS011;9645;51.448;6.260;2023-11-21T03:40:11;47.38;;;15.75;;
19024;SDS011;9645;51.448;6.260;2023-11-21T03:42:39;47.47;;;16.85;;
19024;SDS011;9645;51.448;6.260;2023-11-21T03:45:06;45.33;;;16.23;;
19024;SDS011;9645;51.448;6.260;2023-11-21T03:47:35;61.53;;;19.25;;
19024;SDS011;9645;51.448;6.260;2023-11-21T03:50:04;55.33;;;18.10;;
19024;SDS011;9645;51.448;6.260;2023-11-21T03:52:31;55.00;;;18.67;;
19024;SDS011;9645;51.448;6.260;2023-11-21T03:54:59;56.33;;;18.08;;
19024;SDS011;9645;51.448;6.260;2023-11-21T03:57:26;51.60;;;17.95;;
19024;SDS011;9645;51.448;6.260;2023-11-21T03:59:53;49.13;;;16.42;;
19024;SDS011;9645;51.448;6.260;2023-11-21T04:02:21;55.28;;;17.25;;
19024;SDS011;9645;51.448;6.260;2023-11-21T04:04:50;55.25;;;17.38;;
19024;SDS011;9645;51.448;6.260;2023-11-21T04:07:18;51.50;;;17.08;;
19024;SDS011;9645;51.448;6.260;2023-11-21T04:09:47;50.70;;;17.55;;
19024;SDS011;9645;51.448;6.260;2023-11-21T04:12:14;57.45;;;18.45;;
19024;SDS011;9645;51.448;6.260;2023-11-21T04:14:41;60.33;;;18.35;;
19024;SDS011;9645;51.448;6.260;2023-11-21T04:17:08;58.83;;;16.83;;
19024;SDS011;9645;51.448;6.260;2023-11-21T04:19:36;50.05;;;18.08;;
19024;SDS011;9645;51.448;6.260;2023-11-21T04:22:03;63.90;;;17.48;;
19024;SDS011;9645;51.448;6.260;2023-11-21T04:24:32;71.88;;;17.15;;
19024;SDS011;9645;51.448;6.260;2023-11-21T04:26:59;59.50;;;16.70;;
19024;SDS011;9645;51.448;6.260;2023-11-21T04:29:27;70.95;;;19.38;;
19024;SDS011;9645;51.448;6.260;2023-11-21T04:31:55;73.68;;;17.98;;
19024;SDS011;9645;51.448;6.260;2023-11-21T04:34:22;92.55;;;17.90;;
19024;SDS011;9645;51.448;6.260;2023-11-21T04:36:50;63.60;;;17.70;;
19024;SDS011;9645;51.448;6.260;2023-11-21T04:39:17;61.53;;;16.60;;
19024;SDS011;9645;51.448;6.260;2023-11-21T04:41:46;104.32;;;17.50;;
19024;SDS011;9645;51.448;6.260;2023-11-21T04:44:13;54.63;;;15.55;;
19024;SDS011;9645;51.448;6.260;2023-11-21T04:46:41;51.78;;;15.85;;
19024;SDS011;9645;51.448;6.260;2023-11-21T04:49:08;88.93;;;18.20;;
19024;SDS011;9645;51.448;6.260;2023-11-21T04:51:36;54.95;;;16.90;;
19024;SDS011;9645;51.448;6.260;2023-11-21T04:54:04;67.55;;;16.85;;
19024;SDS011;9645;51.448;6.260;2023-11-21T04:56:31;54.33;;;16.10;;
19024;SDS011;9645;51.448;6.260;2023-11-21T04:59:00;82.65;;;16.92;;
19024;SDS011;9645;51.448;6.260;2023-11-21T05:01:27;65.93;;;18.48;;
19024;SDS011;9645;51.448;6.260;2023-11-21T05:03:55;79.88;;;17.48;;
19024;SDS011;9645;51.448;6.260;2023-11-21T05:06:22;73.38;;;16.40;;
19024;SDS011;9645;51.448;6.260;2023-11-21T05:08:49;75.68;;;19.05;;
19024;SDS011;9645;51.448;6.260;2023-11-21T05:11:23;88.95;;;17.63;;
19024;SDS011;9645;51.448;6.260;2023-11-21T05:13:50;54.53;;;17.25;;
19024;SDS011;9645;51.448;6.260;2023-11-21T05:16:19;208.70;;;18.70;;
19024;SDS011;9645;51.448;6.260;2023-11-21T05:18:47;77.55;;;18.10;;
19024;SDS011;9645;51.448;6.260;2023-11-21T05:21:15;65.38;;;18.67;;
19024;SDS011;9645;51.448;6.260;2023-11-21T05:23:46;89.38;;;18.98;;
19024;SDS011;9645;51.448;6.260;2023-11-21T05:26:13;53.80;;;17.02;;
19024;SDS011;9645;51.448;6.260;2023-11-21T05:28:40;78.90;;;18.50;;
19024;SDS011;9645;51.448;6.260;2023-11-21T05:31:07;43.90;;;17.30;;
19024;SDS011;9645;51.448;6.260;2023-11-21T05:33:37;55.47;;;19.10;;
19024;SDS011;9645;51.448;6.260;2023-11-21T05:36:04;78.22;;;20.60;;
19024;SDS011;9645;51.448;6.260;2023-11-21T05:38:33;57.20;;;19.83;;
19024;SDS011;9645;51.448;6.260;2023-11-21T05:41:00;80.18;;;20.13;;
19024;SDS011;9645;51.448;6.260;2023-11-21T05:43:28;56.97;;;19.40;;
19024;SDS011;9645;51.448;6.260;2023-11-21T05:45:55;43.83;;;17.60;;
19024;SDS011;9645;51.448;6.260;2023-11-21T05:48:23;122.95;;;21.17;;
19024;SDS011;9645;51.448;6.260;2023-11-21T05:50:52;55.13;;;18.73;;
19024;SDS011;9645;51.448;6.260;2023-11-21T05:53:19;120.38;;;20.13;;
19024;SDS011;9645;51.448;6.260;2023-11-21T05:55:46;54.80;;;19.73;;
19024;SDS011;9645;51.448;6.260;2023-11-21T05:58:13;68.03;;;19.00;;
19024;SDS011;9645;51.448;6.260;2023-11-21T06:00:41;53.42;;;19.33;;
19024;SDS011;9645;51.448;6.260;2023-11-21T06:03:08;100.72;;;19.45;;
19024;SDS011;9645;51.448;6.260;2023-11-21T06:05:36;60.35;;;20.13;;
19024;SDS011;9645;51.448;6.260;2023-11-21T06:08:05;60.00;;;20.60;;
19024;SDS011;9645;51.448;6.260;2023-11-21T06:10:32;132.35;;;22.13;;
19024;SDS011;9645;51.448;6.260;2023-11-21T06:13:00;66.47;;;20.17;;
19024;SDS011;9645;51.448;6.260;2023-11-21T06:15:29;62.80;;;20.35;;
19024;SDS011;9645;51.448;6.260;2023-11-21T06:17:56;57.47;;;19.65;;
19024;SDS011;9645;51.448;6.260;2023-11-21T06:20:25;53.60;;;20.45;;
19024;SDS011;9645;51.448;6.260;2023-11-21T06:22:52;67.22;;;21.45;;
19024;SDS011;9645;51.448;6.260;2023-11-21T06:25:21;61.97;;;19.13;;
19024;SDS011;9645;51.448;6.260;2023-11-21T06:27:48;59.08;;;19.75;;
19024;SDS011;9645;51.448;6.260;2023-11-21T06:30:16;92.85;;;20.33;;
19024;SDS011;9645;51.448;6.260;2023-11-21T06:32:45;78.50;;;20.80;;
19024;SDS011;9645;51.448;6.260;2023-11-21T06:35:12;51.95;;;16.85;;
19024;SDS011;9645;51.448;6.260;2023-11-21T06:37:40;68.75;;;17.60;;
19024;SDS011;9645;51.448;6.260;2023-11-21T06:40:12;59.63;;;18.80;;
19024;SDS011;9645;51.448;6.260;2023-11-21T06:42:41;54.60;;;20.42;;
19024;SDS011;9645;51.448;6.260;2023-11-21T06:45:09;53.10;;;18.33;;
19024;SDS011;9645;51.448;6.260;2023-11-21T06:47:36;67.68;;;17.65;;
19024;SDS011;9645;51.448;6.260;2023-11-21T06:50:05;61.72;;;17.25;;
19024;SDS011;9645;51.448;6.260;2023-11-21T06:52:32;61.30;;;17.17;;
19024;SDS011;9645;51.448;6.260;2023-11-21T06:54:59;51.55;;;16.73;;
19024;SDS011;9645;51.448;6.260;2023-11-21T06:57:27;56.78;;;17.95;;
19024;SDS011;9645;51.448;6.260;2023-11-21T06:59:55;105.65;;;18.05;;
19024;SDS011;9645;51.448;6.260;2023-11-21T07:02:22;55.55;;;16.88;;
19024;SDS011;9645;51.448;6.260;2023-11-21T07:04:50;47.05;;;17.00;;
19024;SDS011;9645;51.448;6.260;2023-11-21T07:07:17;74.57;;;17.90;;
19024;SDS011;9645;51.448;6.260;2023-11-21T07:09:45;58.35;;;17.48;;
19024;SDS011;9645;51.448;6.260;2023-11-21T07:12:13;72.22;;;19.55;;
19024;SDS011;9645;51.448;6.260;2023-11-21T07:14:40;53.83;;;17.65;;
19024;SDS011;9645;51.448;6.260;2023-11-21T07:17:11;56.88;;;17.45;;
19024;SDS011;9645;51.448;6.260;2023-11-21T07:19:38;60.33;;;18.20;;
19024;SDS011;9645;51.448;6.260;2023-11-21T07:22:06;63.97;;;17.58;;
19024;SDS011;9645;51.448;6.260;2023-11-21T07:24:34;58.33;;;17.17;;
19024;SDS011;9645;51.448;6.260;2023-11-21T07:27:01;69.22;;;18.23;;
19024;SDS011;9645;51.448;6.260;2023-11-21T07:29:29;56.25;;;18.05;;
19024;SDS011;9645;51.448;6.260;2023-11-21T07:31:56;70.15;;;16.70;;
19024;SDS011;9645;51.448;6.260;2023-11-21T07:34:25;52.00;;;17.25;;
19024;SDS011;9645;51.448;6.260;2023-11-21T07:36:52;75.95;;;18.38;;
19024;SDS011;9645;51.448;6.260;2023-11-21T07:39:19;71.00;;;16.73;;
19024;SDS011;9645;51.448;6.260;2023-11-21T07:41:46;60.63;;;16.70;;
19024;SDS011;9645;51.448;6.260;2023-11-21T07:44:15;90.45;;;19.92;;
19024;SDS011;9645;51.448;6.260;2023-11-21T07:46:43;51.75;;;16.00;;
19024;SDS011;9645;51.448;6.260;2023-11-21T07:49:10;102.82;;;18.65;;
19024;SDS011;9645;51.448;6.260;2023-11-21T07:51:41;65.30;;;17.98;;
19024;SDS011;9645;51.448;6.260;2023-11-21T07:54:08;68.47;;;18.60;;
19024;SDS011;9645;51.448;6.260;2023-11-21T07:56:36;73.13;;;18.10;;
19024;SDS011;9645;51.448;6.260;2023-11-21T07:59:03;63.35;;;18.55;;
19024;SDS011;9645;51.448;6.260;2023-11-21T08:01:30;64.85;;;18.05;;
19024;SDS011;9645;51.448;6.260;2023-11-21T08:03:58;56.58;;;17.23;;
19024;SDS011;9645;51.448;6.260;2023-11-21T08:06:28;53.28;;;16.10;;
19024;SDS011;9645;51.448;6.260;2023-11-21T08:08:57;71.75;;;17.20;;
19024;SDS011;9645;51.448;6.260;2023-11-21T08:11:24;69.38;;;19.30;;
19024;SDS011;9645;51.448;6.260;2023-11-21T08:13:54;60.22;;;17.92;;
19024;SDS011;9645;51.448;6.260;2023-11-21T08:16:20;60.80;;;17.25;;
19024;SDS011;9645;51.448;6.260;2023-11-21T08:18:49;76.18;;;17.75;;
19024;SDS011;9645;51.448;6.260;2023-11-21T08:21:16;61.53;;;16.55;;
19024;SDS011;9645;51.448;6.260;2023-11-21T08:23:44;60.78;;;16.90;;
19024;SDS011;9645;51.448;6.260;2023-11-21T08:26:13;51.20;;;16.42;;
19024;SDS011;9645;51.448;6.260;2023-11-21T08:28:43;51.50;;;15.30;;
19024;SDS011;9645;51.448;6.260;2023-11-21T08:31:10;52.15;;;15.80;;
19024;SDS011;9645;51.448;6.260;2023-11-21T08:33:37;48.75;;;15.30;;
19024;SDS011;9645;51.448;6.260;2023-11-21T08:36:06;53.40;;;15.25;;
19024;SDS011;9645;51.448;6.260;2023-11-21T08:38:34;54.50;;;15.43;;
19024;SDS011;9645;51.448;6.260;2023-11-21T08:41:02;57.80;;;16.10;;
19024;SDS011;9645;51.448;6.260;2023-11-21T08:43:33;51.05;;;16.65;;
19024;SDS011;9645;51.448;6.260;2023-11-21T08:46:01;57.70;;;17.63;;
19024;SDS011;9645;51.448;6.260;2023-11-21T08:48:28;56.55;;;16.92;;
19024;SDS011;9645;51.448;6.260;2023-11-21T08:50:55;46.90;;;16.33;;
19024;SDS011;9645;51.448;6.260;2023-11-21T08:53:22;49.97;;;16.83;;
19024;SDS011;9645;51.448;6.260;2023-11-21T08:55:51;44.90;;;16.20;;
19024;SDS011;9645;51.448;6.260;2023-11-21T08:58:19;57.75;;;16.17;;
19024;SDS011;9645;51.448;6.260;2023-11-21T09:00:48;56.05;;;16.63;;
19024;SDS011;9645;51.448;6.260;2023-11-21T09:03:15;55.10;;;15.57;;
19024;SDS011;9645;51.448;6.260;2023-11-21T09:05:42;56.00;;;14.90;;
19024;SDS011;9645;51.448;6.260;2023-11-21T09:08:09;51.67;;;15.30;;
19024;SDS011;9645;51.448;6.260;2023-11-21T09:10:37;48.65;;;14.60;;
19024;SDS011;9645;51.448;6.260;2023-11-21T09:13:04;52.28;;;15.10;;
19024;SDS011;9645;51.448;6.260;2023-11-21T09:15:34;42.58;;;15.02;;
19024;SDS011;9645;51.448;6.260;2023-11-21T09:18:02;44.55;;;15.77;;
19024;SDS011;9645;51.448;6.260;2023-11-21T09:20:30;51.25;;;16.38;;
19024;SDS011;9645;51.448;6.260;2023-11-21T09:22:57;44.97;;;14.07;;
19024;SDS011;9645;51.448;6.260;2023-11-21T09:25:24;68.40;;;15.50;;
19024;SDS011;9645;51.448;6.260;2023-11-21T09:27:53;41.40;;;15.18;;
19024;SDS011;9645;51.448;6.260;2023-11-21T09:30:21;46.47;;;14.73;;
19024;SDS011;9645;51.448;6.260;2023-11-21T09:32:49;42.45;;;15.75;;
19024;SDS011;9645;51.448;6.260;2023-11-21T09:35:18;44.33;;;14.60;;
19024;SDS011;9645;51.448;6.260;2023-11-21T09:37:45;47.78;;;15.25;;
19024;SDS011;9645;51.448;6.260;2023-11-21T09:40:13;39.47;;;13.88;;
19024;SDS011;9645;51.448;6.260;2023-11-21T09:42:43;47.72;;;15.30;;
19024;SDS011;9645;51.448;6.260;2023-11-21T09:45:15;45.80;;;15.55;;
19024;SDS011;9645;51.448;6.260;2023-11-21T09:47:45;53.90;;;16.05;;
19024;SDS011;9645;51.448;6.260;2023-11-21T09:50:14;45.63;;;14.90;;
19024;SDS011;9645;51.448;6.260;2023-11-21T09:52:48;41.00;;;14.48;;
19024;SDS011;9645;51.448;6.260;2023-11-21T09:55:16;45.22;;;14.98;;
19024;SDS011;9645;51.448;6.260;2023-11-21T09:57:46;43.88;;;14.82;;
19024;SDS011;9645;51.448;6.260;2023-11-21T10:00:15;40.97;;;14.80;;
19024;SDS011;9645;51.448;6.260;2023-11-21T10:02:46;48.53;;;14.02;;
19024;SDS011;9645;51.448;6.260;2023-11-21T10:05:15;48.78;;;14.45;;
19024;SDS011;9645;51.448;6.260;2023-11-21T10:07:43;45.85;;;15.52;;
19024;SDS011;9645;51.448;6.260;2023-11-21T10:10:13;50.38;;;15.15;;
19024;SDS011;9645;51.448;6.260;2023-11-21T10:12:40;39.65;;;14.45;;
19024;SDS011;9645;51.448;6.260;2023-11-21T10:15:09;41.40;;;14.75;;
19024;SDS011;9645;51.448;6.260;2023-11-21T10:17:41;46.70;;;15.02;;
19024;SDS011;9645;51.448;6.260;2023-11-21T10:20:11;41.75;;;15.25;;
19024;SDS011;9645;51.448;6.260;2023-11-21T10:22:38;41.97;;;14.52;;
19024;SDS011;9645;51.448;6.260;2023-11-21T10:25:07;52.63;;;15.20;;
19024;SDS011;9645;51.448;6.260;2023-11-21T10:27:36;43.45;;;15.82;;
19024;SDS011;9645;51.448;6.260;2023-11-21T10:30:04;47.60;;;14.90;;
19024;SDS011;9645;51.448;6.260;2023-11-21T10:32:32;35.80;;;12.18;;
19024;SDS011;9645;51.448;6.260;2023-11-21T10:35:00;56.53;;;17.73;;
19024;SDS011;9645;51.448;6.260;2023-11-21T10:37:31;44.53;;;15.15;;
19024;SDS011;9645;51.448;6.260;2023-11-21T10:39:59;44.67;;;14.98;;
19024;SDS011;9645;51.448;6.260;2023-11-21T10:42:26;41.77;;;14.70;;
19024;SDS011;9645;51.448;6.260;2023-11-21T10:44:54;47.77;;;17.03;;
19024;SDS011;9645;51.448;6.260;2023-11-21T10:47:22;40.58;;;15.23;;
19024;SDS011;9645;51.448;6.260;2023-11-21T10:49:49;32.10;;;12.85;;
19024;SDS011;9645;51.448;6.260;2023-11-21T10:52:18;38.13;;;15.10;;
19024;SDS011;9645;51.448;6.260;2023-11-21T10:54:46;36.70;;;13.75;;
19024;SDS011;9645;51.448;6.260;2023-11-21T10:57:14;40.03;;;15.23;;
19024;SDS011;9645;51.448;6.260;2023-11-21T10:59:45;42.85;;;15.98;;
19024;SDS011;9645;51.448;6.260;2023-11-21T11:02:18;44.33;;;16.23;;
19024;SDS011;9645;51.448;6.260;2023-11-21T11:04:50;39.50;;;14.05;;
19024;SDS011;9645;51.448;6.260;2023-11-21T11:07:20;36.03;;;13.43;;
19024;SDS011;9645;51.448;6.260;2023-11-21T11:09:48;43.53;;;18.70;;
19024;SDS011;9645;51.448;6.260;2023-11-21T11:12:16;44.85;;;16.30;;
19024;SDS011;9645;51.448;6.260;2023-11-21T11:14:44;41.07;;;14.30;;
19024;SDS011;9645;51.448;6.260;2023-11-21T11:17:13;36.20;;;13.60;;
19024;SDS011;9645;51.448;6.260;2023-11-21T11:19:42;34.88;;;12.82;;
19024;SDS011;9645;51.448;6.260;2023-11-21T11:22:12;41.78;;;14.80;;
19024;SDS011;9645;51.448;6.260;2023-11-21T11:24:50;28.20;;;12.80;;
19024;SDS011;9645;51.448;6.260;2023-11-21T11:27:22;36.13;;;14.50;;
19024;SDS011;9645;51.448;6.260;2023-11-21T11:29:55;33.43;;;14.33;;
19024;SDS011;9645;51.448;6.260;2023-11-21T11:32:27;37.50;;;15.30;;
19024;SDS011;9645;51.448;6.260;2023-11-21T11:35:01;34.00;;;14.20;;
19024;SDS011;9645;51.448;6.260;2023-11-21T11:37:30;39.70;;;14.13;;
19024;SDS011;9645;51.448;6.260;2023-11-21T11:39:57;33.90;;;14.60;;
19024;SDS011;9645;51.448;6.260;2023-11-21T11:42:25;39.20;;;16.20;;
19024;SDS011;9645;51.448;6.260;2023-11-21T11:44:55;34.33;;;14.07;;
19024;SDS011;9645;51.448;6.260;2023-11-21T11:47:23;39.10;;;15.10;;
19024;SDS011;9645;51.448;6.260;2023-11-21T11:50:04;40.40;;;15.90;;
19024;SDS011;9645;51.448;6.260;2023-11-21T11:52:39;33.90;;;13.97;;
19024;SDS011;9645;51.448;6.260;2023-11-21T11:55:06;37.10;;;15.23;;
19024;SDS011;9645;51.448;6.260;2023-11-21T11:57:36;34.10;;;13.83;;
19024;SDS011;9645;51.448;6.260;2023-11-21T12:00:10;40.87;;;15.23;;
19024;SDS011;9645;51.448;6.260;2023-11-21T12:02:41;38.43;;;15.73;;
19024;SDS011;9645;51.448;6.260;2023-11-21T12:05:11;40.60;;;15.73;;
19024;SDS011;9645;51.448;6.260;2023-11-21T12:07:45;32.37;;;14.17;;
19024;SDS011;9645;51.448;6.260;2023-11-21T12:10:13;32.23;;;13.40;;
19024;SDS011;9645;51.448;6.260;2023-11-21T12:12:43;39.50;;;14.63;;
19024;SDS011;9645;51.448;6.260;2023-11-21T12:15:11;37.70;;;14.03;;
19024;SDS011;9645;51.448;6.260;2023-11-21T12:17:39;32.83;;;12.20;;
19024;SDS011;9645;51.448;6.260;2023-11-21T12:20:07;34.27;;;14.70;;
19024;SDS011;9645;51.448;6.260;2023-11-21T12:22:42;29.70;;;13.70;;
19024;SDS011;9645;51.448;6.260;2023-11-21T12:25:09;34.67;;;14.37;;
19024;SDS011;9645;51.448;6.260;2023-11-21T12:27:41;30.17;;;13.60;;
19024;SDS011;9645;51.448;6.260;2023-11-21T12:30:09;26.57;;;12.17;;
19024;SDS011;9645;51.448;6.260;2023-11-21T12:32:38;27.33;;;12.10;;
19024;SDS011;9645;51.448;6.260;2023-11-21T12:35:06;28.40;;;11.93;;
19024;SDS011;9645;51.448;6.260;2023-11-21T12:37:35;37.08;;;11.43;;
19024;SDS011;9645;51.448;6.260;2023-11-21T12:40:06;29.70;;;12.05;;
19024;SDS011;9645;51.448;6.260;2023-11-21T12:42:37;20.13;;;10.37;;
19024;SDS011;9645;51.448;6.260;2023-11-21T12:47:51;21.20;;;10.25;;
19024;SDS011;9645;51.448;6.260;2023-11-21T12:50:20;26.60;;;10.27;;
19024;SDS011;9645;51.448;6.260;2023-11-21T12:52:52;24.10;;;11.23;;
19024;SDS011;9645;51.448;6.260;2023-11-21T12:55:21;22.02;;;9.95;;
19024;SDS011;9645;51.448;6.260;2023-11-21T12:57:48;22.77;;;10.10;;
19024;SDS011;9645;51.448;6.260;2023-11-21T13:00:19;22.10;;;10.40;;
19024;SDS011;9645;51.448;6.260;2023-11-21T13:02:54;22.97;;;9.87;;
19024;SDS011;9645;51.448;6.260;2023-11-21T13:05:25;23.67;;;9.70;;
19024;SDS011;9645;51.448;6.260;2023-11-21T13:07:53;21.30;;;9.90;;
19024;SDS011;9645;51.448;6.260;2023-11-21T13:10:24;17.93;;;9.10;;
19024;SDS011;9645;51.448;6.260;2023-11-21T13:12:54;22.30;;;9.65;;
19024;SDS011;9645;51.448;6.260;2023-11-21T13:15:23;23.55;;;10.88;;
19024;SDS011;9645;51.448;6.260;2023-11-21T13:17:50;23.57;;;11.20;;
19024;SDS011;9645;51.448;6.260;2023-11-21T13:20:18;23.80;;;11.07;;
19024;SDS011;9645;51.448;6.260;2023-11-21T13:22:49;26.07;;;11.83;;
19024;SDS011;9645;51.448;6.260;2023-11-21T13:25:19;26.15;;;11.43;;
19024;SDS011;9645;51.448;6.260;2023-11-21T13:27:48;30.17;;;12.13;;
19024;SDS011;9645;51.448;6.260;2023-11-21T13:30:16;31.27;;;12.80;;
19024;SDS011;9645;51.448;6.260;2023-11-21T13:32:48;29.27;;;13.50;;
19024;SDS011;9645;51.448;6.260;2023-11-21T13:35:16;24.93;;;12.00;;
19024;SDS011;9645;51.448;6.260;2023-11-21T13:37:48;28.73;;;11.73;;
19024;SDS011;9645;51.448;6.260;2023-11-21T13:40:19;23.50;;;10.67;;
19024;SDS011;9645;51.448;6.260;2023-11-21T13:42:53;27.03;;;11.43;;
19024;SDS011;9645;51.448;6.260;2023-11-21T13:45:22;26.77;;;12.20;;
19024;SDS011;9645;51.448;6.260;2023-11-21T13:47:51;25.57;;;12.40;;
19024;SDS011;9645;51.448;6.260;2023-11-21T13:50:22;28.20;;;12.43;;
19024;SDS011;9645;51.448;6.260;2023-11-21T13:52:52;34.27;;;13.50;;
19024;SDS011;9645;51.448;6.260;2023-11-21T13:55:19;29.63;;;13.17;;
19024;SDS011;9645;51.448;6.260;2023-11-21T13:57:50;33.53;;;13.53;;
19024;SDS011;9645;51.448;6.260;2023-11-21T14:00:19;37.78;;;15.27;;
19024;SDS011;9645;51.448;6.260;2023-11-21T14:03:10;43.83;;;16.40;;
19024;SDS011;9645;51.448;6.260;2023-11-21T14:05:44;42.63;;;17.57;;
19024;SDS011;9645;51.448;6.260;2023-11-21T14:08:16;37.83;;;17.50;;
19024;SDS011;9645;51.448;6.260;2023-11-21T14:10:48;40.55;;;15.70;;
19024;SDS011;9645;51.448;6.260;2023-11-21T14:13:22;35.30;;;15.33;;
19024;SDS011;9645;51.448;6.260;2023-11-21T14:15:51;39.30;;;17.50;;
19024;SDS011;9645;51.448;6.260;2023-11-21T14:18:22;43.15;;;17.00;;
19024;SDS011;9645;51.448;6.260;2023-11-21T14:20:55;34.60;;;14.63;;
19024;SDS011;9645;51.448;6.260;2023-11-21T14:23:23;38.10;;;16.00;;
19024;SDS011;9645;51.448;6.260;2023-11-21T14:25:50;34.90;;;14.20;;
19024;SDS011;9645;51.448;6.260;2023-11-21T14:28:17;42.23;;;15.83;;
19024;SDS011;9645;51.448;6.260;2023-11-21T14:30:45;40.73;;;16.40;;
19024;SDS011;9645;51.448;6.260;2023-11-21T14:33:14;40.08;;;16.80;;
19024;SDS011;9645;51.448;6.260;2023-11-21T14:35:41;30.63;;;14.13;;
19024;SDS011;9645;51.448;6.260;2023-11-21T14:38:11;42.38;;;15.10;;
19024;SDS011;9645;51.448;6.260;2023-11-21T14:40:39;41.17;;;13.63;;
19024;SDS011;9645;51.448;6.260;2023-11-21T14:43:07;30.75;;;11.30;;